createdAt,value
2023-03-22T00:00:59.024Z,1.04
2023-03-22T00:01:59.158Z,1.04
2023-03-22T00:02:59.390Z,1.04
2023-03-22T00:03:59.523Z,1.04
2023-03-22T00:04:59.624Z,1.04
2023-03-22T00:05:59.768Z,1.04
2023-03-22T00:06:59.927Z,1.04
2023-03-22T00:08:00.106Z,1.04
2023-03-22T00:09:00.238Z,1.04
2023-03-22T00:10:00.399Z,1.04
2023-03-22T00:11:00.528Z,1.04
2023-03-22T00:12:00.672Z,1.04
2023-03-22T00:13:00.773Z,1.04
2023-03-22T00:14:00.894Z,1.04
2023-03-22T00:15:01.502Z,1.04
2023-03-22T00:16:01.180Z,1.04
2023-03-22T00:17:01.270Z,1.04
2023-03-22T00:18:01.380Z,1.04
2023-03-22T00:19:01.536Z,1.04
2023-03-22T00:20:01.722Z,1.04
2023-03-22T00:21:01.857Z,1.04
2023-03-22T00:22:01.996Z,1.04
2023-03-22T00:23:02.135Z,1.04
2023-03-22T00:24:02.304Z,1.04
2023-03-22T00:25:02.458Z,1.04
2023-03-22T00:26:02.607Z,1.04
2023-03-22T00:27:02.764Z,1.04
2023-03-22T00:28:02.922Z,1.04
2023-03-22T00:29:03.054Z,1.04
2023-03-22T00:30:03.697Z,1.04
2023-03-22T00:31:03.380Z,1.04
2023-03-22T00:32:03.406Z,1.04
2023-03-22T00:33:03.576Z,1.04
2023-03-22T00:34:03.735Z,1.04
2023-03-22T00:35:03.874Z,1.04
2023-03-22T00:36:04.027Z,1.04
2023-03-22T00:37:04.195Z,1.04
2023-03-22T00:38:04.329Z,1.04
2023-03-22T00:39:04.478Z,1.04
2023-03-22T00:40:04.633Z,1.04
2023-03-22T00:41:04.784Z,1.04
2023-03-22T00:42:04.891Z,1.04
2023-03-22T00:43:05.029Z,1.04
2023-03-22T00:44:05.184Z,1.04
2023-03-22T00:45:06.059Z,1.04
2023-03-22T00:46:05.453Z,1.04
2023-03-22T00:47:05.527Z,1.04
2023-03-22T00:48:05.738Z,1.04
2023-03-22T00:49:05.845Z,1.04
2023-03-22T00:50:05.996Z,1.04
2023-03-22T00:51:06.096Z,1.04
2023-03-22T00:52:06.202Z,1.04
2023-03-22T00:53:06.332Z,1.04
2023-03-22T00:54:06.475Z,1.04
2023-03-22T00:55:06.631Z,1.04
2023-03-22T00:56:06.819Z,1.04
2023-03-22T00:57:06.920Z,1.04
2023-03-22T00:58:07.153Z,1.04
2023-03-22T00:59:07.372Z,1.04
2023-03-22T01:00:08.027Z,1.04
2023-03-22T01:01:07.660Z,1.04
2023-03-22T01:02:07.757Z,1.04
2023-03-22T01:03:08.286Z,1.04
2023-03-22T01:04:08.060Z,1.04
2023-03-22T01:05:08.164Z,1.04
2023-03-22T01:06:08.260Z,1.04
2023-03-22T01:07:08.364Z,1.04
2023-03-22T01:08:08.468Z,1.04
2023-03-22T01:09:08.626Z,1.04
2023-03-22T01:10:08.712Z,1.04
2023-03-22T01:11:08.872Z,1.04
2023-03-22T01:12:09.023Z,1.04
2023-03-22T01:13:09.128Z,1.04
2023-03-22T01:14:09.281Z,1.04
2023-03-22T01:15:10.043Z,1.04
2023-03-22T01:16:09.658Z,1.04
2023-03-22T01:17:09.678Z,1.04
2023-03-22T01:18:09.835Z,1.04
2023-03-22T01:19:09.994Z,1.04
2023-03-22T01:20:10.086Z,1.04
2023-03-22T01:21:10.237Z,1.04
2023-03-22T01:22:10.378Z,1.04
2023-03-22T01:23:10.527Z,1.04
2023-03-22T01:24:10.697Z,1.04
2023-03-22T01:25:10.834Z,1.04
2023-03-22T01:26:10.996Z,1.04
2023-03-22T01:27:11.134Z,1.04
2023-03-22T01:28:11.302Z,1.04
2023-03-22T01:29:11.447Z,1.04
2023-03-22T01:30:12.168Z,1.04
2023-03-22T01:31:11.839Z,1.04
2023-03-22T01:32:11.906Z,1.04
2023-03-22T01:33:12.084Z,1.04
2023-03-22T01:34:12.207Z,1.04
2023-03-22T01:35:12.298Z,1.04
2023-03-22T01:36:12.465Z,1.04
2023-03-22T01:37:12.653Z,1.04
2023-03-22T01:38:12.772Z,1.04
2023-03-22T01:39:12.880Z,1.04
2023-03-22T01:40:13.030Z,1.04
2023-03-22T01:41:13.107Z,1.04
2023-03-22T01:42:13.272Z,1.04
2023-03-22T01:43:13.435Z,1.04
2023-03-22T01:44:13.588Z,1.04
2023-03-22T01:45:14.333Z,1.04
2023-03-22T01:46:13.919Z,1.04
2023-03-22T01:47:14.060Z,1.04
2023-03-22T01:48:14.301Z,1.04
2023-03-22T01:49:14.378Z,1.04
2023-03-22T01:50:14.478Z,1.04
2023-03-22T01:51:14.622Z,1.04
2023-03-22T01:52:14.736Z,1.04
2023-03-22T01:53:14.886Z,1.04
2023-03-22T01:54:15.042Z,1.04
2023-03-22T01:55:15.178Z,1.04
2023-03-22T01:56:15.333Z,1.04
2023-03-22T01:57:15.490Z,1.04
2023-03-22T01:58:15.638Z,1.04
2023-03-22T01:59:15.734Z,1.04
2023-03-22T02:00:16.476Z,1.04
2023-03-22T02:01:16.098Z,1.04
2023-03-22T02:02:16.256Z,1.04
2023-03-22T02:03:16.356Z,1.04
2023-03-22T02:04:16.499Z,1.04
2023-03-22T02:05:16.652Z,1.04
2023-03-22T02:06:16.836Z,1.04
2023-03-22T02:07:16.929Z,1.04
2023-03-22T02:08:17.061Z,1.04
2023-03-22T02:09:17.220Z,1.04
2023-03-22T02:10:17.312Z,1.04
2023-03-22T02:11:17.460Z,1.04
2023-03-22T02:12:17.609Z,1.04
2023-03-22T02:13:17.789Z,1.04
2023-03-22T02:14:17.882Z,1.04
2023-03-22T02:15:18.636Z,1.04
2023-03-22T02:16:18.172Z,1.04
2023-03-22T02:17:18.274Z,1.04
2023-03-22T02:18:18.418Z,1.04
2023-03-22T02:19:18.580Z,1.04
2023-03-22T02:20:18.735Z,1.04
2023-03-22T02:21:18.872Z,1.04
2023-03-22T02:22:19.024Z,1.04
2023-03-22T02:23:19.175Z,1.04
2023-03-22T02:24:19.347Z,1.04
2023-03-22T02:25:19.452Z,1.04
2023-03-22T02:26:19.597Z,1.04
2023-03-22T02:27:19.737Z,1.04
2023-03-22T02:28:19.846Z,1.04
2023-03-22T02:29:19.991Z,1.04
2023-03-22T02:30:20.752Z,1.04
2023-03-22T02:31:20.297Z,1.04
2023-03-22T02:32:20.403Z,1.04
2023-03-22T02:33:20.567Z,1.04
2023-03-22T02:34:20.705Z,1.04
2023-03-22T02:35:20.919Z,1.04
2023-03-22T02:36:20.998Z,1.04
2023-03-22T02:37:21.111Z,1.04
2023-03-22T02:38:21.253Z,1.04
2023-03-22T02:39:21.376Z,1.04
2023-03-22T02:40:21.513Z,1.04
2023-03-22T02:41:21.655Z,1.04
2023-03-22T02:42:22.293Z,1.04
2023-03-22T02:43:21.903Z,1.04
2023-03-22T02:44:22.066Z,1.04
2023-03-22T02:45:22.794Z,1.04
2023-03-22T02:46:22.517Z,1.04
2023-03-22T02:47:22.443Z,1.04
2023-03-22T02:48:23.270Z,1.04
2023-03-22T02:49:22.765Z,1.04
2023-03-22T02:50:22.945Z,1.04
2023-03-22T02:51:23.077Z,1.04
2023-03-22T02:52:23.218Z,1.04
2023-03-22T02:53:23.325Z,1.04
2023-03-22T02:54:23.488Z,1.04
2023-03-22T02:55:23.631Z,1.04
2023-03-22T02:56:23.793Z,1.04
2023-03-22T02:57:23.935Z,1.04
2023-03-22T02:58:24.089Z,1.04
2023-03-22T02:59:24.226Z,1.04
2023-03-22T03:00:24.896Z,1.04
2023-03-22T03:01:24.582Z,1.04
2023-03-22T03:02:24.722Z,1.04
2023-03-22T03:03:24.833Z,1.04
2023-03-22T03:04:25.010Z,1.04
2023-03-22T03:05:25.167Z,1.04
2023-03-22T03:06:25.282Z,1.04
2023-03-22T03:07:25.435Z,1.04
2023-03-22T03:08:25.615Z,1.04
2023-03-22T03:09:25.756Z,1.04
2023-03-22T03:10:25.907Z,1.04
2023-03-22T03:11:26.020Z,1.04
2023-03-22T03:12:26.172Z,1.04
2023-03-22T03:13:26.313Z,1.04
2023-03-22T03:14:26.532Z,1.04
2023-03-22T03:15:27.090Z,1.04
2023-03-22T03:16:26.814Z,1.04
2023-03-22T03:17:26.872Z,1.04
2023-03-22T03:18:27.010Z,1.04
2023-03-22T03:19:27.173Z,1.04
2023-03-22T03:20:27.307Z,1.04
2023-03-22T03:21:27.463Z,1.04
2023-03-22T03:22:27.614Z,1.04
2023-03-22T03:23:27.758Z,1.04
2023-03-22T03:24:27.918Z,1.04
2023-03-22T03:25:28.012Z,1.04
2023-03-22T03:26:28.166Z,1.04
2023-03-22T03:27:28.281Z,1.04
2023-03-22T03:28:28.417Z,1.04
2023-03-22T03:29:28.565Z,1.04
2023-03-22T03:30:28.739Z,1.04
2023-03-22T03:31:28.934Z,1.04
2023-03-22T03:32:29.063Z,1.04
2023-03-22T03:33:29.202Z,1.04
2023-03-22T03:34:29.355Z,1.04
2023-03-22T03:35:29.469Z,1.04
2023-03-22T03:36:29.536Z,1.04
2023-03-22T03:37:29.639Z,1.04
2023-03-22T03:38:29.732Z,1.04
2023-03-22T03:39:29.833Z,1.04
2023-03-22T03:40:29.937Z,1.04
2023-03-22T03:41:30.036Z,1.04
2023-03-22T03:42:30.205Z,1.04
2023-03-22T03:43:30.301Z,1.04
2023-03-22T03:44:30.452Z,1.04
2023-03-22T03:45:30.642Z,1.04
2023-03-22T03:46:30.753Z,1.04
2023-03-22T03:47:30.859Z,1.04
2023-03-22T03:48:31.006Z,1.04
2023-03-22T03:49:31.119Z,1.04
2023-03-22T03:50:31.258Z,1.04
2023-03-22T03:51:31.407Z,1.04
2023-03-22T03:52:31.591Z,1.04
2023-03-22T03:53:31.729Z,1.04
2023-03-22T03:54:31.865Z,1.04
2023-03-22T03:55:32.025Z,1.04
2023-03-22T03:56:32.179Z,1.04
2023-03-22T03:57:32.323Z,1.04
2023-03-22T03:58:32.486Z,1.04
2023-03-22T03:59:33.209Z,1.04
2023-03-22T04:00:32.804Z,1.04
2023-03-22T04:01:32.896Z,1.04
2023-03-22T04:02:33.064Z,1.04
2023-03-22T04:03:33.188Z,1.04
2023-03-22T04:04:33.385Z,1.04
2023-03-22T04:05:33.507Z,1.04
2023-03-22T04:06:33.635Z,1.04
2023-03-22T04:07:33.739Z,1.04
2023-03-22T04:08:33.845Z,1.04
2023-03-22T04:09:33.922Z,1.04
2023-03-22T04:10:34.075Z,1.04
2023-03-22T04:11:34.241Z,1.04
2023-03-22T04:12:34.361Z,1.04
2023-03-22T04:13:34.466Z,1.04
2023-03-22T04:14:35.158Z,1.04
2023-03-22T04:15:34.766Z,1.04
2023-03-22T04:16:34.981Z,1.04
2023-03-22T04:17:35.063Z,1.04
2023-03-22T04:18:35.221Z,1.04
2023-03-22T04:19:35.372Z,1.04
2023-03-22T04:20:35.524Z,1.04
2023-03-22T04:21:35.674Z,1.04
2023-03-22T04:22:35.815Z,1.04
2023-03-22T04:23:35.924Z,1.04
2023-03-22T04:24:36.064Z,1.04
2023-03-22T04:25:36.237Z,1.04
2023-03-22T04:26:36.369Z,1.04
2023-03-22T04:27:36.528Z,1.04
2023-03-22T04:28:36.669Z,1.04
2023-03-22T04:29:37.310Z,2
2023-03-22T04:30:37.090Z,2
2023-03-22T04:31:37.074Z,2
2023-03-22T04:32:37.182Z,2
2023-03-22T04:33:37.326Z,2
2023-03-22T04:34:37.480Z,3.04
2023-03-22T04:35:37.670Z,3.04
2023-03-22T04:36:37.783Z,3.04
2023-03-22T04:37:37.952Z,3.04
2023-03-22T04:38:38.082Z,4
2023-03-22T04:39:38.242Z,4
2023-03-22T04:40:38.753Z,5.04
2023-03-22T04:41:38.499Z,6
2023-03-22T04:42:38.640Z,7.04
2023-03-22T04:43:38.797Z,8
2023-03-22T04:44:39.436Z,10
2023-03-22T04:45:39.102Z,12
2023-03-22T04:46:39.237Z,14
2023-03-22T04:47:39.348Z,18
2023-03-22T04:48:39.498Z,21.04
2023-03-22T04:49:39.646Z,25.04
2023-03-22T04:50:40.020Z,31.04
2023-03-22T04:51:39.990Z,36
2023-03-22T04:52:40.112Z,42
2023-03-22T04:53:40.265Z,50
2023-03-22T04:54:40.454Z,57.04
2023-03-22T04:55:40.569Z,68
2023-03-22T04:56:40.716Z,101.04
2023-03-22T04:57:40.869Z,113.04
2023-03-22T04:58:41.013Z,128
2023-03-22T04:59:41.675Z,140
2023-03-22T05:00:41.680Z,161.04
2023-03-22T05:01:41.488Z,180
2023-03-22T05:02:41.805Z,205.12
2023-03-22T05:03:41.779Z,245.12
2023-03-22T05:04:41.924Z,305.12
2023-03-22T05:05:42.028Z,359.04
2023-03-22T05:06:42.169Z,399.04
2023-03-22T05:07:42.344Z,416
2023-03-22T05:08:42.530Z,449.28
2023-03-22T05:09:42.650Z,491.2
2023-03-22T05:10:42.793Z,526.08
2023-03-22T05:11:42.891Z,563.2
2023-03-22T05:12:43.040Z,612.16
2023-03-22T05:13:43.185Z,647.04
2023-03-22T05:14:43.915Z,685.44
2023-03-22T05:15:43.543Z,700.16
2023-03-22T05:16:43.634Z,706.56
2023-03-22T05:17:43.752Z,685.44
2023-03-22T05:18:43.897Z,666.24
2023-03-22T05:19:44.049Z,671.36
2023-03-22T05:20:44.201Z,695.04
2023-03-22T05:21:44.355Z,732.16
2023-03-22T05:22:44.500Z,782.08
2023-03-22T05:23:44.647Z,821.12
2023-03-22T05:24:44.747Z,859.52
2023-03-22T05:25:44.919Z,891.52
2023-03-22T05:26:45.031Z,947.2
2023-03-22T05:27:45.163Z,995.2
2023-03-22T05:28:45.310Z,1027.2
2023-03-22T05:29:45.922Z,1059.2
2023-03-22T05:30:45.566Z,1094.4
2023-03-22T05:31:45.805Z,1139.2
2023-03-22T05:32:45.887Z,1198.08
2023-03-22T05:33:46.010Z,1248
2023-03-22T05:34:46.165Z,1291.52
2023-03-22T05:35:46.386Z,1438.72
2023-03-22T05:36:46.480Z,1509.12
2023-03-22T05:37:46.633Z,1621.76
2023-03-22T05:38:46.804Z,1721.6
2023-03-22T05:39:46.917Z,1829.12
2023-03-22T05:40:47.081Z,1940.48
2023-03-22T05:41:47.209Z,1998.08
2023-03-22T05:42:47.297Z,2045.44
2023-03-22T05:43:47.453Z,2082.56
2023-03-22T05:44:48.118Z,2144
2023-03-22T05:45:47.749Z,2243.84
2023-03-22T05:46:47.916Z,2318.08
2023-03-22T05:47:48.062Z,2397.44
2023-03-22T05:48:48.208Z,2479.36
2023-03-22T05:49:48.308Z,2567.68
2023-03-22T05:50:48.443Z,2667.52
2023-03-22T05:51:48.549Z,2752
2023-03-22T05:52:48.698Z,2859.52
2023-03-22T05:53:48.807Z,2959.36
2023-03-22T05:54:48.905Z,3130.88
2023-03-22T05:55:49.048Z,3251.2
2023-03-22T05:56:49.167Z,3397.12
2023-03-22T05:57:49.304Z,3530.24
2023-03-22T05:58:49.421Z,3663.36
2023-03-22T05:59:49.558Z,3852.8
2023-03-22T06:00:49.746Z,3985.92
2023-03-22T06:01:49.907Z,4113.92
2023-03-22T06:02:50.050Z,4170.24
2023-03-22T06:03:50.188Z,4213.76
2023-03-22T06:04:50.347Z,4367.36
2023-03-22T06:05:50.493Z,4528.64
2023-03-22T06:06:50.669Z,4700.16
2023-03-22T06:07:50.728Z,4794.88
2023-03-22T06:08:50.903Z,4894.72
2023-03-22T06:09:51.039Z,4986.88
2023-03-22T06:10:51.191Z,5061.12
2023-03-22T06:11:51.345Z,5219.84
2023-03-22T06:12:51.519Z,5381.12
2023-03-22T06:13:51.637Z,5550.08
2023-03-22T06:14:52.498Z,5760
2023-03-22T06:15:51.990Z,5908.48
2023-03-22T06:16:52.169Z,6062.08
2023-03-22T06:17:52.246Z,6159.36
2023-03-22T06:18:52.449Z,6261.76
2023-03-22T06:19:53.216Z,6338.56
2023-03-22T06:20:52.697Z,6420.48
2023-03-22T06:21:52.854Z,6533.12
2023-03-22T06:22:53.001Z,6630.4
2023-03-22T06:23:53.161Z,6773.76
2023-03-22T06:24:53.811Z,6896.64
2023-03-22T06:25:53.364Z,7075.84
2023-03-22T06:26:54.030Z,7224.32
2023-03-22T06:27:53.668Z,7362.56
2023-03-22T06:28:53.818Z,7546.88
2023-03-22T06:29:54.597Z,7705.6
2023-03-22T06:30:54.200Z,7884.8
2023-03-22T06:31:54.267Z,8110.08
2023-03-22T06:32:54.417Z,8314.88
2023-03-22T06:33:55.872Z,8412.16
2023-03-22T06:34:54.746Z,8488.96
2023-03-22T06:35:54.891Z,8560.64
2023-03-22T06:36:54.967Z,8642.56
2023-03-22T06:37:55.073Z,8698.88
2023-03-22T06:38:55.364Z,8806.399
2023-03-22T06:39:55.524Z,8878.08
2023-03-22T06:40:55.676Z,9000.96
2023-03-22T06:41:55.767Z,9123.84
2023-03-22T06:42:55.870Z,9236.479
2023-03-22T06:43:56.024Z,9472
2023-03-22T06:44:56.165Z,9676.8
2023-03-22T06:45:56.293Z,9912.319
2023-03-22T06:46:56.424Z,10168.319
2023-03-22T06:47:56.652Z,10296.319
2023-03-22T06:48:56.723Z,10460.16
2023-03-22T06:49:56.841Z,10670.08
2023-03-22T06:50:57.002Z,10895.359
2023-03-22T06:51:57.140Z,11048.96
2023-03-22T06:52:57.306Z,11253.76
2023-03-22T06:53:57.428Z,11591.68
2023-03-22T06:54:57.623Z,11714.56
2023-03-22T06:55:57.725Z,11673.6
2023-03-22T06:56:57.899Z,11857.92
2023-03-22T06:57:58.036Z,12349.439
2023-03-22T06:58:58.160Z,12431.359
2023-03-22T06:59:58.811Z,14540.8
2023-03-22T07:00:58.604Z,13127.68
2023-03-22T07:01:58.595Z,11612.16
2023-03-22T07:02:58.758Z,11253.76
2023-03-22T07:03:58.912Z,12840.96
2023-03-22T07:04:59.006Z,13619.199
2023-03-22T07:05:59.154Z,12625.92
2023-03-22T07:06:59.297Z,11407.359
2023-03-22T07:07:59.435Z,11274.24
2023-03-22T07:08:59.574Z,11376.64
2023-03-22T07:09:59.722Z,11632.64
2023-03-22T07:10:59.806Z,11018.24
2023-03-22T07:11:59.974Z,11601.92
2023-03-22T07:13:00.103Z,11499.52
2023-03-22T07:14:00.236Z,12533.76
2023-03-22T07:15:00.989Z,13987.84
2023-03-22T07:16:00.617Z,14233.6
2023-03-22T07:17:00.695Z,16424.96
2023-03-22T07:18:00.874Z,26910.72
2023-03-22T07:19:00.930Z,36352
2023-03-22T07:20:01.114Z,37601.28
2023-03-22T07:21:01.189Z,38727.68
2023-03-22T07:22:01.342Z,29532.16
2023-03-22T07:23:01.442Z,39403.52
2023-03-22T07:24:01.584Z,43991.04
2023-03-22T07:25:02.005Z,42311.68
2023-03-22T07:26:01.945Z,41861.12
2023-03-22T07:27:02.111Z,43540.48
2023-03-22T07:28:02.289Z,47759.36
2023-03-22T07:29:02.446Z,44933.12
2023-03-22T07:30:03.075Z,60006.4
2023-03-22T07:31:02.748Z,59965.44
2023-03-22T07:32:02.962Z,60047.36
2023-03-22T07:33:03.050Z,61603.84
2023-03-22T07:34:03.205Z,60497.92
2023-03-22T07:35:03.318Z,59473.92
2023-03-22T07:36:03.457Z,59678.72
2023-03-22T07:37:03.607Z,60375.04
2023-03-22T07:38:03.787Z,59637.76
2023-03-22T07:39:03.905Z,58900.48
2023-03-22T07:40:03.935Z,60416
2023-03-22T07:41:04.088Z,61521.92
2023-03-22T07:42:04.263Z,61603.84
2023-03-22T07:43:04.383Z,62218.24
2023-03-22T07:44:16.854Z,62177.28
2023-03-22T07:45:05.354Z,62750.72
2023-03-22T07:46:04.771Z,47431.68
2023-03-22T07:47:04.924Z,39116.8
2023-03-22T07:48:05.081Z,63815.68
2023-03-22T07:49:05.186Z,65126.4
2023-03-22T07:50:05.335Z,40980.48
2023-03-22T07:51:05.497Z,64471.04
2023-03-22T07:52:05.646Z,60252.16
2023-03-22T07:53:05.817Z,51609.6
2023-03-22T07:54:07.679Z,50749.44
2023-03-22T07:55:06.057Z,57098.24
2023-03-22T07:56:06.186Z,65085.44
2023-03-22T07:57:06.356Z,61890.56
2023-03-22T07:58:06.516Z,54312.96
2023-03-22T07:59:06.860Z,55500.8
2023-03-22T08:00:07.550Z,63569.92
2023-03-22T08:01:06.908Z,63324.16
2023-03-22T08:02:07.113Z,62668.8
2023-03-22T08:03:07.267Z,58982.4
2023-03-22T08:04:07.400Z,60948.48
2023-03-22T08:05:07.547Z,60211.2
2023-03-22T08:06:07.712Z,61317.12
2023-03-22T08:07:07.809Z,44195.84
2023-03-22T08:08:07.982Z,54190.08
2023-03-22T08:09:08.111Z,72212.48
2023-03-22T08:10:08.259Z,57876.48
2023-03-22T08:11:08.441Z,40775.68
2023-03-22T08:12:08.514Z,47472.64
2023-03-22T08:13:08.645Z,53002.24
2023-03-22T08:14:08.779Z,40755.2
2023-03-22T08:15:09.366Z,56401.92
2023-03-22T08:16:09.048Z,46366.72
2023-03-22T08:17:09.076Z,60784.64
2023-03-22T08:18:09.219Z,50176
2023-03-22T08:19:09.323Z,76267.52
2023-03-22T08:20:09.489Z,38666.24
2023-03-22T08:21:09.627Z,36986.88
2023-03-22T08:22:09.779Z,31641.6
2023-03-22T08:23:09.926Z,35840
2023-03-22T08:24:10.087Z,34836.48
2023-03-22T08:25:10.243Z,45793.28
2023-03-22T08:26:10.413Z,33034.24
2023-03-22T08:27:10.499Z,35061.76
2023-03-22T08:28:10.652Z,42926.08
2023-03-22T08:29:10.803Z,71720.96
2023-03-22T08:30:11.452Z,71024.64
2023-03-22T08:31:12.734Z,59555.84
2023-03-22T08:32:11.232Z,67133.44
2023-03-22T08:33:11.305Z,67665.92
2023-03-22T08:34:11.451Z,67051.52
2023-03-22T08:35:11.602Z,65986.56
2023-03-22T08:36:11.747Z,66355.2
2023-03-22T08:37:11.897Z,64184.32
2023-03-22T08:38:12.076Z,69345.28
2023-03-22T08:39:12.207Z,69386.24
2023-03-22T08:40:12.394Z,69713.92
2023-03-22T08:41:12.512Z,69345.28
2023-03-22T08:42:12.666Z,69140.48
2023-03-22T08:43:12.846Z,69140.48
2023-03-22T08:44:12.967Z,70656
2023-03-22T08:45:13.703Z,70860.8
2023-03-22T08:46:13.354Z,58572.8
2023-03-22T08:47:13.369Z,57139.2
2023-03-22T08:48:13.540Z,50626.56
2023-03-22T08:49:13.665Z,41738.24
2023-03-22T08:50:13.821Z,45178.88
2023-03-22T08:51:13.990Z,39731.2
2023-03-22T08:52:14.115Z,40304.64
2023-03-22T08:53:14.229Z,42639.36
2023-03-22T08:54:14.395Z,43130.88
2023-03-22T08:55:14.489Z,43950.08
2023-03-22T08:56:14.675Z,38912
2023-03-22T08:57:14.776Z,36761.6
2023-03-22T08:58:14.944Z,34979.84
2023-03-22T08:59:15.078Z,32092.16
2023-03-22T09:00:15.663Z,32481.28
2023-03-22T09:01:15.397Z,34078.72
2023-03-22T09:02:15.477Z,34754.56
2023-03-22T09:03:15.563Z,35655.68
2023-03-22T09:04:15.744Z,32256
2023-03-22T09:05:15.866Z,31600.64
2023-03-22T09:06:16.039Z,29839.36
2023-03-22T09:07:16.123Z,29204.48
2023-03-22T09:08:19.367Z,29655.04
2023-03-22T09:09:16.404Z,29921.28
2023-03-22T09:10:16.598Z,30474.24
2023-03-22T09:11:17.857Z,31150.08
2023-03-22T09:12:16.831Z,36065.28
2023-03-22T09:13:16.964Z,33648.64
2023-03-22T09:14:17.122Z,33239.04
2023-03-22T09:15:17.783Z,36700.16
2023-03-22T09:16:17.411Z,40038.4
2023-03-22T09:17:17.411Z,62382.08
2023-03-22T09:18:17.564Z,53084.16
2023-03-22T09:19:17.741Z,41553.92
2023-03-22T09:20:17.868Z,61112.32
2023-03-22T09:21:18.518Z,57466.88
2023-03-22T09:22:18.168Z,47063.04
2023-03-22T09:23:18.344Z,57384.96
2023-03-22T09:24:18.476Z,51322.88
2023-03-22T09:25:18.646Z,64471.04
2023-03-22T09:26:18.808Z,39936
2023-03-22T09:27:18.956Z,42557.44
2023-03-22T09:28:19.129Z,45465.6
2023-03-22T09:29:19.226Z,42844.16
2023-03-22T09:30:19.889Z,60825.6
2023-03-22T09:31:20.620Z,44072.96
2023-03-22T09:32:19.625Z,46202.88
2023-03-22T09:33:19.785Z,40796.16
2023-03-22T09:34:19.947Z,45998.08
2023-03-22T09:35:20.127Z,35594.24
2023-03-22T09:36:20.229Z,39034.88
2023-03-22T09:37:20.398Z,37171.2
2023-03-22T09:38:20.500Z,61808.64
2023-03-22T09:39:20.653Z,52469.76
2023-03-22T09:40:20.809Z,41615.36
2023-03-22T09:41:20.957Z,41512.96
2023-03-22T09:42:21.095Z,47104
2023-03-22T09:43:21.278Z,56647.68
2023-03-22T09:44:21.390Z,42721.28
2023-03-22T09:45:22.024Z,34508.8
2023-03-22T09:46:21.769Z,36024.32
2023-03-22T09:47:21.855Z,35819.52
2023-03-22T09:48:21.965Z,38707.2
2023-03-22T09:49:22.088Z,34652.16
2023-03-22T09:50:22.314Z,34263.04
2023-03-22T09:51:22.316Z,31907.84
2023-03-22T09:52:22.543Z,32276.48
2023-03-22T09:53:22.624Z,38604.8
2023-03-22T09:54:22.765Z,49971.2
2023-03-22T09:55:22.947Z,68771.84
2023-03-22T09:56:23.084Z,33955.84
2023-03-22T09:57:23.212Z,46530.56
2023-03-22T09:58:23.376Z,47882.24
2023-03-22T09:59:23.488Z,39178.24
2023-03-22T10:00:24.332Z,47185.92
2023-03-22T10:01:24.048Z,46448.64
2023-03-22T10:02:24.033Z,42188.8
2023-03-22T10:03:24.037Z,37519.36
2023-03-22T10:04:24.331Z,38912
2023-03-22T10:05:24.315Z,33054.72
2023-03-22T10:06:24.425Z,69713.92
2023-03-22T10:07:24.596Z,32931.84
2023-03-22T10:08:24.777Z,72417.28
2023-03-22T10:09:24.921Z,72171.52
2023-03-22T10:10:25.058Z,71557.12
2023-03-22T10:11:25.198Z,45711.36
2023-03-22T10:12:25.349Z,70983.68
2023-03-22T10:13:25.497Z,60375.04
2023-03-22T10:14:25.657Z,71884.8
2023-03-22T10:15:26.270Z,70737.92
2023-03-22T10:16:26.035Z,38236.16
2023-03-22T10:17:26.121Z,66314.24
2023-03-22T10:18:26.200Z,63774.72
2023-03-22T10:19:26.364Z,35020.8
2023-03-22T10:20:26.515Z,54640.64
2023-03-22T10:21:26.675Z,18585.6
2023-03-22T10:22:26.833Z,59473.92
2023-03-22T10:23:26.975Z,19159.04
2023-03-22T10:24:27.128Z,58245.12
2023-03-22T10:25:27.261Z,56483.84
2023-03-22T10:26:27.415Z,52019.2
2023-03-22T10:27:27.559Z,55623.68
2023-03-22T10:28:27.702Z,47964.16
2023-03-22T10:29:27.843Z,38871.04
2023-03-22T10:30:28.550Z,50544.64
2023-03-22T10:31:28.151Z,47923.2
2023-03-22T10:32:28.244Z,47636.48
2023-03-22T10:33:28.383Z,55418.88
2023-03-22T10:34:28.481Z,54558.72
2023-03-22T10:35:28.676Z,30679.04
2023-03-22T10:36:28.724Z,37990.4
2023-03-22T10:37:28.884Z,34365.44
2023-03-22T10:38:28.983Z,31621.12
2023-03-22T10:39:29.082Z,31641.6
2023-03-22T10:40:29.249Z,27156.48
2023-03-22T10:41:29.342Z,26460.16
2023-03-22T10:42:29.484Z,54599.68
2023-03-22T10:43:29.644Z,52142.08
2023-03-22T10:44:30.586Z,49807.36
2023-03-22T10:45:29.869Z,35328
2023-03-22T10:46:30.049Z,30208
2023-03-22T10:47:30.154Z,21934.08
2023-03-22T10:48:30.388Z,49807.36
2023-03-22T10:49:30.414Z,48291.84
2023-03-22T10:50:30.528Z,45547.52
2023-03-22T10:51:30.636Z,37601.28
2023-03-22T10:52:30.780Z,44195.84
2023-03-22T10:53:30.910Z,50790.4
2023-03-22T10:54:31.022Z,58859.52
2023-03-22T10:55:31.492Z,57221.12
2023-03-22T10:56:31.268Z,56565.76
2023-03-22T10:57:31.416Z,57098.24
2023-03-22T10:58:31.542Z,56606.72
2023-03-22T10:59:32.151Z,55091.2
2023-03-22T11:00:31.862Z,52183.04
2023-03-22T11:01:32.099Z,21544.96
2023-03-22T11:02:32.244Z,30883.84
2023-03-22T11:03:32.794Z,24965.12
2023-03-22T11:04:32.382Z,44810.24
2023-03-22T11:05:32.542Z,45588.48
2023-03-22T11:06:32.630Z,45547.52
2023-03-22T11:07:32.802Z,41881.6
2023-03-22T11:08:32.925Z,43253.76
2023-03-22T11:09:33.059Z,42516.48
2023-03-22T11:10:33.250Z,41205.76
2023-03-22T11:11:33.292Z,40591.36
2023-03-22T11:12:33.448Z,38768.64
2023-03-22T11:13:33.580Z,39915.52
2023-03-22T11:14:34.245Z,40652.8
2023-03-22T11:15:33.801Z,40960
2023-03-22T11:16:33.976Z,40878.08
2023-03-22T11:17:34.111Z,39976.96
2023-03-22T11:18:34.250Z,36024.32
2023-03-22T11:19:34.413Z,39260.16
2023-03-22T11:20:34.608Z,36904.96
2023-03-22T11:21:34.744Z,37724.16
2023-03-22T11:22:34.862Z,36290.56
2023-03-22T11:23:35.002Z,33116.16
2023-03-22T11:24:35.157Z,39567.36
2023-03-22T11:25:35.326Z,41123.84
2023-03-22T11:26:37.130Z,39751.68
2023-03-22T11:27:35.503Z,32378.88
2023-03-22T11:28:35.613Z,39219.2
2023-03-22T11:29:36.355Z,37642.24
2023-03-22T11:30:35.899Z,35799.04
2023-03-22T11:31:36.336Z,35123.2
2023-03-22T11:32:36.553Z,34734.08
2023-03-22T11:33:36.565Z,34283.52
2023-03-22T11:34:36.738Z,33648.64
2023-03-22T11:35:36.920Z,33607.68
2023-03-22T11:36:37.034Z,32276.48
2023-03-22T11:37:37.169Z,33095.68
2023-03-22T11:38:37.362Z,33320.96
2023-03-22T11:39:37.497Z,33116.16
2023-03-22T11:40:37.724Z,32542.72
2023-03-22T11:41:37.769Z,31662.08
2023-03-22T11:42:37.883Z,28078.08
2023-03-22T11:43:38.038Z,16742.4
2023-03-22T11:44:38.666Z,19650.56
2023-03-22T11:45:38.420Z,19169.28
2023-03-22T11:46:38.515Z,24473.6
2023-03-22T11:47:38.566Z,25702.4
2023-03-22T11:48:38.747Z,24535.04
2023-03-22T11:49:38.788Z,22896.64
2023-03-22T11:50:39.324Z,19875.84
2023-03-22T11:51:39.101Z,17018.88
2023-03-22T11:52:39.312Z,22671.36
2023-03-22T11:53:39.389Z,24023.04
2023-03-22T11:54:39.561Z,23797.76
2023-03-22T11:55:39.774Z,20797.44
2023-03-22T11:56:39.797Z,22056.96
2023-03-22T11:57:40.000Z,22753.28
2023-03-22T11:58:40.101Z,21299.2
2023-03-22T11:59:40.254Z,25047.04
2023-03-22T12:00:40.393Z,25292.8
2023-03-22T12:01:40.546Z,25231.36
2023-03-22T12:02:40.746Z,21749.76
2023-03-22T12:03:40.962Z,22528
2023-03-22T12:04:40.920Z,24330.24
2023-03-22T12:05:41.296Z,22179.84
2023-03-22T12:06:41.210Z,24821.76
2023-03-22T12:07:41.410Z,23654.4
2023-03-22T12:08:41.499Z,25763.84
2023-03-22T12:09:41.697Z,26910.72
2023-03-22T12:10:41.815Z,25968.64
2023-03-22T12:11:41.973Z,24821.76
2023-03-22T12:12:42.151Z,27217.92
2023-03-22T12:13:42.258Z,27545.6
2023-03-22T12:14:42.868Z,27402.24
2023-03-22T12:15:42.772Z,26460.16
2023-03-22T12:16:42.705Z,25989.12
2023-03-22T12:17:42.829Z,26296.32
2023-03-22T12:18:42.951Z,24965.12
2023-03-22T12:19:43.087Z,26419.2
2023-03-22T12:20:43.350Z,25825.28
2023-03-22T12:21:43.378Z,25333.76
2023-03-22T12:22:43.512Z,24145.92
2023-03-22T12:23:43.589Z,22876.16
2023-03-22T12:24:43.746Z,20377.6
2023-03-22T12:25:43.903Z,19200
2023-03-22T12:26:44.049Z,19425.28
2023-03-22T12:27:44.205Z,19005.44
2023-03-22T12:28:44.366Z,19722.24
2023-03-22T12:29:45.169Z,19630.08
2023-03-22T12:30:44.678Z,20480